Аэропорт: Актобе. Актобе

ICAO: UATT

METAR:
2024-04-22 22:00:00
UATT 222200Z 07005MPS CAVOK 15/09 Q1017 NOSIG RMK QFE743/0991
TAF:
2024-04-22 17:01:00
TAF UATT 221701Z 2218/2318 08005MPS CAVOK TX27/2311Z TN13/2301Z 
  TEMPO 2303/2315 10010MPS 
  TEMPO 2316/2318 3100 -TSRA BKN015CB